SAS954 ESGG-EKCH
Flight info
| Callsign | SAS954 |
|---|---|
| Flight time | 0h 27m |
| Altitude | 21000 |
| Route | TOPL3J TOPLA L996 ERNOV ERNO4C |
| Aircraft | A333/H-SDE3GHIJ2J3J5M1RVWXY/LB2D1 |
Departure
| Time | 2026-05-04 06:16 |
|---|---|
| Airport | Göteborg Landvetter Airport (ESGG) |
Arrival
| Time | 2026-05-04 06:44 |
|---|---|
| Airport | Copenhagen Kastrup Airport (EKCH) |
| Time | Latitude | Longitude | Altitude | Speed | Heading |
|---|---|---|---|---|---|
| 2026-05-04 05:48 | 57.67013 | 12.29507 | 533 ft | 0 kts | 116° |
| 2026-05-04 05:51 | 57.67015 | 12.29500 | 533 ft | 0 kts | 116° |
| 2026-05-04 06:05 | 57.67031 | 12.29440 | 533 ft | 2 kts | 116° |
| 2026-05-04 06:05 | 57.67056 | 12.29427 | 533 ft | 2 kts | 197° |
| 2026-05-04 06:05 | 57.67065 | 12.29434 | 533 ft | 1 kts | 208° |
| 2026-05-04 06:13 | 57.67059 | 12.29428 | 533 ft | 6 kts | 208° |
| 2026-05-04 06:14 | 57.67347 | 12.29459 | 535 ft | 25 kts | 24° |
| 2026-05-04 06:14 | 57.67419 | 12.29436 | 536 ft | 8 kts | 308° |
| 2026-05-04 06:15 | 57.67447 | 12.29334 | 536 ft | 10 kts | 294° |
| 2026-05-04 06:15 | 57.67459 | 12.29194 | 535 ft | 12 kts | 263° |
| 2026-05-04 06:15 | 57.67428 | 12.29023 | 534 ft | 14 kts | 231° |
| 2026-05-04 06:15 | 57.67407 | 12.28997 | 534 ft | 7 kts | 207° |
| 2026-05-04 06:16 | 57.67144 | 12.28761 | 534 ft | 79 kts | 206° |
| 2026-05-04 06:16 | 57.66441 | 12.28118 | 526 ft | 144 kts | 206° |
| 2026-05-04 06:16 | 57.65406 | 12.27177 | 943 ft | 175 kts | 206° |
| 2026-05-04 06:16 | 57.64287 | 12.26192 | 1785 ft | 189 kts | 208° |
| 2026-05-04 06:17 | 57.63018 | 12.25042 | 2287 ft | 218 kts | 209° |
| 2026-05-04 06:17 | 57.61482 | 12.24165 | 2902 ft | 241 kts | 194° |
| 2026-05-04 06:17 | 57.59789 | 12.23634 | 3746 ft | 251 kts | 192° |
| 2026-05-04 06:17 | 57.58023 | 12.23180 | 4637 ft | 260 kts | 191° |
| 2026-05-04 06:18 | 57.56210 | 12.22787 | 5620 ft | 266 kts | 188° |
| 2026-05-04 06:18 | 57.54327 | 12.22915 | 6587 ft | 276 kts | 178° |
| 2026-05-04 06:18 | 57.52405 | 12.23396 | 7610 ft | 280 kts | 176° |
| 2026-05-04 06:20 | 57.37259 | 12.27549 | 13219 ft | 349 kts | 176° |
| 2026-05-04 06:20 | 57.34845 | 12.28202 | 14087 ft | 352 kts | 176° |
| 2026-05-04 06:21 | 57.24941 | 12.30860 | 17402 ft | 365 kts | 177° |
| 2026-05-04 06:21 | 57.22415 | 12.31536 | 18208 ft | 368 kts | 178° |
| 2026-05-04 06:22 | 57.19869 | 12.32215 | 18902 ft | 371 kts | 178° |
| 2026-05-04 06:22 | 57.17294 | 12.32900 | 19615 ft | 374 kts | 178° |
| 2026-05-04 06:25 | 56.82102 | 12.41683 | 20807 ft | 395 kts | 178° |
| 2026-05-04 06:25 | 56.79370 | 12.42352 | 20806 ft | 395 kts | 178° |
| 2026-05-04 06:26 | 56.76676 | 12.43011 | 20805 ft | 395 kts | 178° |
| 2026-05-04 06:26 | 56.73953 | 12.43676 | 20802 ft | 395 kts | 178° |
| 2026-05-04 06:26 | 56.71227 | 12.44341 | 20806 ft | 396 kts | 178° |
| 2026-05-04 06:26 | 56.68496 | 12.45006 | 20805 ft | 396 kts | 178° |
| 2026-05-04 06:27 | 56.57580 | 12.47658 | 18892 ft | 394 kts | 178° |
| 2026-05-04 06:28 | 56.54875 | 12.48315 | 18228 ft | 390 kts | 178° |
| 2026-05-04 06:28 | 56.52192 | 12.48966 | 17478 ft | 388 kts | 178° |
| 2026-05-04 06:28 | 56.49530 | 12.49610 | 16814 ft | 384 kts | 178° |
| 2026-05-04 06:28 | 56.46885 | 12.50248 | 16046 ft | 382 kts | 178° |
| 2026-05-04 06:29 | 56.44262 | 12.50878 | 15307 ft | 380 kts | 178° |
| 2026-05-04 06:29 | 56.41655 | 12.51502 | 14596 ft | 377 kts | 178° |
| 2026-05-04 06:29 | 56.39061 | 12.52120 | 13915 ft | 375 kts | 178° |
| 2026-05-04 06:29 | 56.36488 | 12.52732 | 13243 ft | 371 kts | 178° |
| 2026-05-04 06:30 | 56.33941 | 12.53340 | 12568 ft | 366 kts | 178° |
| 2026-05-04 06:30 | 56.31443 | 12.53936 | 12181 ft | 355 kts | 178° |
| 2026-05-04 06:30 | 56.29061 | 12.54510 | 12095 ft | 337 kts | 178° |
| 2026-05-04 06:30 | 56.26788 | 12.55056 | 11990 ft | 321 kts | 178° |
| 2026-05-04 06:31 | 56.24624 | 12.55572 | 11870 ft | 307 kts | 178° |
| 2026-05-04 06:31 | 56.22544 | 12.56065 | 11644 ft | 298 kts | 179° |
| 2026-05-04 06:31 | 56.20494 | 12.56544 | 11262 ft | 295 kts | 179° |
| 2026-05-04 06:31 | 56.18472 | 12.57014 | 10915 ft | 291 kts | 179° |
| 2026-05-04 06:32 | 56.16483 | 12.57055 | 10644 ft | 281 kts | 194° |
| 2026-05-04 06:33 | 56.03282 | 12.64061 | 8456 ft | 281 kts | 162° |
| 2026-05-04 06:34 | 56.01492 | 12.65460 | 8100 ft | 280 kts | 161° |
| 2026-05-04 06:34 | 55.99707 | 12.66852 | 7741 ft | 279 kts | 161° |
| 2026-05-04 06:34 | 55.97934 | 12.68233 | 7416 ft | 277 kts | 161° |
| 2026-05-04 06:34 | 55.96170 | 12.69607 | 7078 ft | 276 kts | 161° |
| 2026-05-04 06:35 | 55.94416 | 12.70970 | 6737 ft | 275 kts | 161° |
| 2026-05-04 06:36 | 55.84377 | 12.82766 | 5406 ft | 237 kts | 145° |
| 2026-05-04 06:37 | 55.83094 | 12.84565 | 5248 ft | 232 kts | 145° |
| 2026-05-04 06:37 | 55.81830 | 12.86340 | 5001 ft | 232 kts | 145° |
| 2026-05-04 06:37 | 55.80562 | 12.88120 | 4760 ft | 232 kts | 145° |
| 2026-05-04 06:37 | 55.79275 | 12.89789 | 4455 ft | 226 kts | 156° |
| 2026-05-04 06:38 | 55.77787 | 12.90395 | 4054 ft | 218 kts | 186° |
| 2026-05-04 06:38 | 55.76287 | 12.90120 | 3697 ft | 216 kts | 194° |
| 2026-05-04 06:40 | 55.70607 | 12.79443 | 2177 ft | 162 kts | 234° |
| 2026-05-04 06:40 | 55.69805 | 12.78043 | 1938 ft | 159 kts | 228° |
| 2026-05-04 06:40 | 55.68998 | 12.76784 | 1731 ft | 150 kts | 228° |
| 2026-05-04 06:40 | 55.68247 | 12.75621 | 1533 ft | 137 kts | 229° |
| 2026-05-04 06:41 | 55.67562 | 12.74556 | 1353 ft | 127 kts | 229° |
| 2026-05-04 06:41 | 55.66906 | 12.73530 | 1189 ft | 126 kts | 229° |
| 2026-05-04 06:41 | 55.66251 | 12.72512 | 1017 ft | 125 kts | 230° |
| 2026-05-04 06:41 | 55.65596 | 12.71495 | 832 ft | 124 kts | 228° |
| 2026-05-04 06:42 | 55.64960 | 12.70506 | 669 ft | 120 kts | 224° |
| 2026-05-04 06:42 | 55.64335 | 12.69538 | 513 ft | 120 kts | 224° |
| 2026-05-04 06:42 | 55.63720 | 12.68585 | 364 ft | 118 kts | 223° |
| 2026-05-04 06:44 | 55.61254 | 12.64616 | 29 ft | 19 kts | 248° |
| 2026-05-04 06:44 | 55.61212 | 12.64395 | 25 ft | 12 kts | 250° |
| 2026-05-04 06:44 | 55.61209 | 12.64383 | 25 ft | 0 kts | 251° |
| 2026-05-04 06:45 | 55.61209 | 12.64381 | 25 ft | 1 kts | 251° |
| 2026-05-04 06:45 | 55.61191 | 12.64266 | 22 ft | 18 kts | 259° |
| 2026-05-04 06:45 | 55.61277 | 12.64119 | 20 ft | 22 kts | 18° |
| 2026-05-04 06:45 | 55.61411 | 12.64265 | 22 ft | 25 kts | 33° |
| 2026-05-04 06:46 | 55.61582 | 12.64459 | 25 ft | 27 kts | 32° |
| 2026-05-04 06:46 | 55.61718 | 12.64617 | 25 ft | 24 kts | 35° |
| 2026-05-04 06:46 | 55.61852 | 12.64776 | 25 ft | 19 kts | 31° |
| 2026-05-04 06:46 | 55.61973 | 12.64907 | 24 ft | 20 kts | 31° |
| 2026-05-04 06:48 | 55.62596 | 12.64292 | 27 ft | 4 kts | 43° |
| 2026-05-04 06:48 | 55.62611 | 12.64360 | 30 ft | 8 kts | 67° |
| 2026-05-04 06:49 | 55.62621 | 12.64402 | 30 ft | 2 kts | 67° |